Time;durP1;ratioP1;P1;durP2;ratioP2;P2;SDS_P1;SDS_P2;PMS_P1;PMS_P2;Temp;Humidity;BMP_temperature;BMP_pressure;BME280_temperature;BME280_humidity;BME280_pressure;Samples;Min_cycle;Max_cycle;Signal;HPM_P1;HPM_P2
2021/05/18 00:01:53;;;;;;;3.55;2.67;;;;;;;;;;5030086;28;20034;-61
2021/05/18 00:04:19;;;;;;;4.60;2.78;;;;;;;;;;5030443;28;20038;-62
2021/05/18 00:06:46;;;;;;;4.65;2.50;;;;;;;;;;5031184;28;20930;-61
2021/05/18 00:11:55;;;;;;;4.90;2.60;;;;;;;;;;5029444;28;20044;-61
2021/05/18 00:14:24;;;;;;;4.90;2.97;;;;;;;;;;5032869;28;20571;-62
2021/05/18 00:16:51;;;;;;;4.30;2.60;;;;;;;;;;5030440;28;20030;-62
2021/05/18 00:19:17;;;;;;;4.90;2.67;;;;;;;;;;5029992;28;20072;-62
2021/05/18 00:21:42;;;;;;;4.78;2.70;;;;;;;;;;5030602;28;20037;-62
2021/05/18 00:24:08;;;;;;;5.15;2.75;;;;;;;;;;5030979;28;20052;-61
2021/05/18 00:26:34;;;;;;;4.10;2.45;;;;;;;;;;5032563;28;20541;-60
2021/05/18 00:28:59;;;;;;;7.03;2.88;;;;;;;;;;5030850;28;20577;-61
2021/05/18 00:31:25;;;;;;;5.55;2.88;;;;;;;;;;5030305;28;20041;-60
2021/05/18 00:33:50;;;;;;;4.53;2.75;;;;;;;;;;5039540;28;20037;-60
2021/05/18 00:36:16;;;;;;;4.32;2.80;;;;;;;;;;5029975;28;20505;-61
2021/05/18 00:38:41;;;;;;;3.88;2.97;;;;;;;;;;5030841;28;20030;-61
2021/05/18 00:41:07;;;;;;;4.88;2.90;;;;;;;;;;5032022;28;20570;-61
2021/05/18 00:43:34;;;;;;;5.30;3.15;;;;;;;;;;5029770;28;20042;-61
2021/05/18 00:45:59;;;;;;;5.07;3.55;;;;;;;;;;5029650;28;20563;-61
2021/05/18 00:48:25;;;;;;;5.97;3.40;;;;;;;;;;5030161;28;20044;-61
2021/05/18 00:50:57;;;;;;;5.47;3.53;;;;;;;;;;5034758;28;20160;-60
2021/05/18 00:53:22;;;;;;;5.65;3.70;;;;;;;;;;5034368;28;20036;-60
2021/05/18 00:58:33;;;;;;;6.85;4.47;;;;;;;;;;5030384;28;20112;-60
2021/05/18 01:01:05;;;;;;;7.00;4.10;;;;;;;;;;5014479;28;20041;-61
2021/05/18 01:03:31;;;;;;;6.78;4.55;;;;;;;;;;5033754;28;20061;-60
2021/05/18 01:08:42;;;;;;;7.50;5.30;;;;;;;;;;5058109;28;20034;-60
2021/05/18 01:11:09;;;;;;;7.53;4.82;;;;;;;;;;5045347;28;20038;-61
2021/05/18 01:13:36;;;;;;;7.55;4.47;;;;;;;;;;5029356;28;20104;-61
2021/05/18 01:16:03;;;;;;;7.40;4.43;;;;;;;;;;5029263;28;20035;-61
2021/05/18 01:18:37;;;;;;;7.03;4.22;;;;;;;;;;5030855;28;20088;-60
2021/05/18 01:21:03;;;;;;;8.30;4.65;;;;;;;;;;5033542;28;20057;-60
2021/05/18 01:23:28;;;;;;;6.15;4.50;;;;;;;;;;5037217;28;20433;-61
2021/05/18 01:25:54;;;;;;;7.65;4.63;;;;;;;;;;5035586;28;20116;-60
2021/05/18 01:28:20;;;;;;;8.00;4.70;;;;;;;;;;5033310;28;20124;-60
2021/05/18 01:30:46;;;;;;;7.10;4.53;;;;;;;;;;5065245;28;20490;-60
2021/05/18 01:33:11;;;;;;;7.70;4.50;;;;;;;;;;5025334;28;20041;-61
2021/05/18 01:35:37;;;;;;;7.97;4.30;;;;;;;;;;5035330;28;20037;-61
2021/05/18 01:38:06;;;;;;;7.03;4.40;;;;;;;;;;5030427;28;20536;-61
2021/05/18 01:43:16;;;;;;;7.18;4.88;;;;;;;;;;5031493;28;20041;-60
2021/05/18 01:45:43;;;;;;;8.27;4.65;;;;;;;;;;5034186;28;20038;-61
2021/05/18 01:48:13;;;;;;;7.80;4.57;;;;;;;;;;5035031;28;20571;-64
2021/05/18 01:50:46;;;;;;;6.40;4.30;;;;;;;;;;5036445;28;20113;-61
2021/05/18 01:53:14;;;;;;;7.03;4.22;;;;;;;;;;5033381;28;20113;-60
2021/05/18 01:55:48;;;;;;;7.35;4.60;;;;;;;;;;5041843;28;20459;-61
2021/05/18 01:58:14;;;;;;;7.95;4.30;;;;;;;;;;5032101;28;20037;-60
2021/05/18 02:00:48;;;;;;;6.43;3.95;;;;;;;;;;5064477;28;20042;-60
2021/05/18 02:03:23;;;;;;;7.38;4.25;;;;;;;;;;5036083;28;20045;-60
2021/05/18 02:05:49;;;;;;;7.85;4.40;;;;;;;;;;5032768;28;20042;-60
2021/05/18 02:08:34;;;;;;;8.23;4.60;;;;;;;;;;5031425;28;20590;-60
2021/05/18 02:11:03;;;;;;;8.07;4.43;;;;;;;;;;5034043;28;20037;-61
2021/05/18 02:13:30;;;;;;;7.65;4.22;;;;;;;;;;5032177;28;20627;-60
2021/05/18 02:16:06;;;;;;;7.22;3.72;;;;;;;;;;5034943;28;20921;-61
2021/05/18 02:18:51;;;;;;;6.35;3.88;;;;;;;;;;5034096;28;20038;-60
2021/05/18 02:21:32;;;;;;;;;;;;;;;;;;5032932;28;20041;-60
2021/05/18 02:26:42;;;;;;;6.55;3.55;;;;;;;;;;5039854;28;20056;-61
2021/05/18 02:29:08;;;;;;;7.40;3.88;;;;;;;;;;5033761;28;20049;-61
2021/05/18 02:31:34;;;;;;;8.07;4.28;;;;;;;;;;5034714;28;20037;-61
2021/05/18 02:34:15;;;;;;;5.70;3.78;;;;;;;;;;5050843;28;20046;-61
2021/05/18 02:36:41;;;;;;;7.22;3.85;;;;;;;;;;5037215;28;20037;-61
2021/05/18 02:39:06;;;;;;;7.15;3.97;;;;;;;;;;5030847;28;20037;-61
2021/05/18 02:41:32;;;;;;;6.93;4.22;;;;;;;;;;5032881;28;20038;-61
2021/05/18 02:44:08;;;;;;;6.75;3.88;;;;;;;;;;5031016;28;20568;-61
2021/05/18 02:49:25;;;;;;;5.95;3.72;;;;;;;;;;5038448;28;20149;-60
2021/05/18 02:51:53;;;;;;;5.95;3.67;;;;;;;;;;5031774;28;20056;-60
2021/05/18 02:54:24;;;;;;;6.25;3.58;;;;;;;;;;5018745;28;20029;-60
2021/05/18 02:56:59;;;;;;;5.72;3.72;;;;;;;;;;5029804;28;20513;-60
2021/05/18 02:59:25;;;;;;;6.57;3.22;;;;;;;;;;5032584;28;20522;-61
2021/05/18 03:01:58;;;;;;;4.88;3.05;;;;;;;;;;5032468;28;20021;-61
2021/05/18 03:04:24;;;;;;;6.00;3.47;;;;;;;;;;5031068;28;20041;-61
2021/05/18 03:06:50;;;;;;;5.07;3.13;;;;;;;;;;5031596;28;20426;-61
2021/05/18 03:09:17;;;;;;;5.68;3.13;;;;;;;;;;5025989;28;20037;-60
2021/05/18 03:11:43;;;;;;;5.82;3.00;;;;;;;;;;5031288;28;20036;-60
2021/05/18 03:14:09;;;;;;;6.78;3.60;;;;;;;;;;5030599;28;20062;-61
2021/05/18 03:16:36;;;;;;;4.78;2.65;;;;;;;;;;5033196;28;20418;-60
2021/05/18 03:19:01;;;;;;;5.68;2.90;;;;;;;;;;5032635;28;20044;-61
2021/05/18 03:21:27;;;;;;;5.38;2.88;;;;;;;;;;5032741;28;20087;-60
2021/05/18 03:23:53;;;;;;;5.88;3.50;;;;;;;;;;5064073;28;20116;-60
2021/05/18 03:26:19;;;;;;;5.07;3.00;;;;;;;;;;5032410;28;20073;-61
2021/05/18 03:28:46;;;;;;;5.55;3.22;;;;;;;;;;5023774;28;20030;-61
2021/05/18 03:36:40;;;;;;;5.72;3.40;;;;;;;;;;5032965;28;20036;-61
2021/05/18 03:39:06;;;;;;;6.15;3.28;;;;;;;;;;5021742;28;20048;-61
2021/05/18 03:41:42;;;;;;;7.65;3.50;;;;;;;;;;5030517;28;20038;-61
2021/05/18 03:44:22;;;;;;;6.90;3.38;;;;;;;;;;5028905;28;20064;-60
2021/05/18 04:02:41;;;;;;;6.32;3.10;;;;;;;;;;5027909;28;20050;-61
2021/05/18 04:18:25;;;;;;;5.60;3.45;;;;;;;;;;5028383;28;20513;-60
2021/05/18 04:52:50;;;;;;;5.82;3.30;;;;;;;;;;5032339;28;20035;-60
2021/05/18 05:00:55;;;;;;;7.10;3.60;;;;;;;;;;5034232;28;20514;-61
2021/05/18 05:08:50;;;;;;;8.45;4.55;;;;;;;;;;5032639;28;20904;-60
2021/05/18 05:16:26;;;;;;;8.80;4.55;;;;;;;;;;5034249;28;20034;-60
2021/05/18 05:18:52;;;;;;;8.10;4.18;;;;;;;;;;5032614;28;20567;-60
2021/05/18 05:21:20;;;;;;;8.10;4.30;;;;;;;;;;5033187;28;20080;-60
2021/05/18 05:23:47;;;;;;;7.10;4.30;;;;;;;;;;5032190;28;20383;-60
2021/05/18 05:26:12;;;;;;;8.10;4.70;;;;;;;;;;5040017;28;20041;-61
2021/05/18 05:28:38;;;;;;;7.93;4.68;;;;;;;;;;5040758;28;20349;-61
2021/05/18 05:31:03;;;;;;;7.10;4.20;;;;;;;;;;5030308;28;20570;-61
2021/05/18 05:33:29;;;;;;;10.13;5.13;;;;;;;;;;5064744;28;20033;-60
2021/05/18 05:35:54;;;;;;;10.23;5.15;;;;;;;;;;5031932;28;20034;-60
2021/05/18 05:38:22;;;;;;;8.77;4.72;;;;;;;;;;5066657;28;20508;-60
2021/05/18 05:40:47;;;;;;;7.20;4.40;;;;;;;;;;5033049;28;20664;-60
2021/05/18 05:43:13;;;;;;;7.72;4.72;;;;;;;;;;5032156;28;20087;-60
2021/05/18 05:45:38;;;;;;;8.48;5.10;;;;;;;;;;5031839;28;20041;-61
2021/05/18 05:48:04;;;;;;;8.25;4.80;;;;;;;;;;5032273;28;20065;-61
2021/05/18 05:50:30;;;;;;;9.35;4.60;;;;;;;;;;5033912;28;20044;-60
2021/05/18 05:52:55;;;;;;;6.88;4.57;;;;;;;;;;5031400;28;20359;-60
2021/05/18 05:55:20;;;;;;;7.43;4.30;;;;;;;;;;5032593;28;20042;-60
2021/05/18 05:57:46;;;;;;;7.50;4.40;;;;;;;;;;5038093;28;20036;-60
2021/05/18 06:00:12;;;;;;;6.90;4.00;;;;;;;;;;5032390;28;20030;-60
2021/05/18 06:02:38;;;;;;;7.72;4.13;;;;;;;;;;5047242;28;20021;-61
2021/05/18 06:05:05;;;;;;;8.48;4.43;;;;;;;;;;5007320;28;20425;-61
2021/05/18 06:07:30;;;;;;;8.90;4.20;;;;;;;;;;5014907;28;20033;-60
2021/05/18 06:10:01;;;;;;;6.15;3.92;;;;;;;;;;5030723;28;20042;-61
2021/05/18 06:42:46;;;;;;;3.22;1.80;;;;;;;;;;5033436;28;20042;-61
2021/05/18 06:47:35;;;;;;;2.92;1.50;;;;;;;;;;5031103;28;20116;-61
2021/05/18 06:52:45;;;;;;;2.50;1.58;;;;;;;;;;5030372;28;20096;-61
2021/05/18 06:55:17;;;;;;;3.20;1.92;;;;;;;;;;5047382;28;20099;-61
2021/05/18 06:57:46;;;;;;;3.25;1.83;;;;;;;;;;5061030;28;20045;-60
2021/05/18 07:00:14;;;;;;;2.58;1.60;;;;;;;;;;5031552;28;20153;-61
2021/05/18 07:02:42;;;;;;;3.08;1.80;;;;;;;;;;5029535;28;20037;-61
2021/05/18 07:08:03;;;;;;;2.63;1.80;;;;;;;;;;5033957;28;20577;-61
2021/05/18 07:10:29;;;;;;;2.42;1.90;;;;;;;;;;5032510;28;20038;-61
2021/05/18 07:12:54;;;;;;;2.63;1.92;;;;;;;;;;5032754;28;20029;-62
2021/05/18 07:15:20;;;;;;;4.22;2.13;;;;;;;;;;5031011;28;20398;-61
2021/05/18 07:17:46;;;;;;;3.40;2.10;;;;;;;;;;5031891;28;20041;-61
2021/05/18 07:20:11;;;;;;;2.55;2.05;;;;;;;;;;5029596;28;20026;-61
2021/05/18 07:22:37;;;;;;;3.17;2.10;;;;;;;;;;5030343;28;20034;-61
2021/05/18 07:25:03;;;;;;;3.17;2.58;;;;;;;;;;5032478;28;20449;-61
2021/05/18 07:27:28;;;;;;;3.08;2.05;;;;;;;;;;5032493;28;20034;-61
2021/05/18 07:29:54;;;;;;;4.75;2.53;;;;;;;;;;5031945;28;20753;-61
2021/05/18 07:32:19;;;;;;;4.05;2.55;;;;;;;;;;5032044;28;20040;-62
2021/05/18 07:34:46;;;;;;;3.00;2.40;;;;;;;;;;5032106;28;20512;-61
2021/05/18 07:37:12;;;;;;;3.88;2.60;;;;;;;;;;5032052;28;20037;-61
2021/05/18 07:39:38;;;;;;;3.15;2.10;;;;;;;;;;5031440;28;20141;-61
2021/05/18 07:42:04;;;;;;;3.33;2.28;;;;;;;;;;5031702;28;20030;-61
2021/05/18 07:44:29;;;;;;;3.67;2.45;;;;;;;;;;5030627;28;20037;-61
2021/05/18 07:46:55;;;;;;;4.15;2.20;;;;;;;;;;5032559;28;20029;-61
2021/05/18 07:49:41;;;;;;;3.25;2.10;;;;;;;;;;5030088;28;20045;-61
2021/05/18 08:00:52;;;;;;;3.10;1.95;;;;;;;;;;5031639;28;20033;-61
2021/05/18 08:05:52;;;;;;;2.33;1.85;;;;;;;;;;5034014;28;19943;-61
2021/05/18 08:08:18;;;;;;;4.20;2.08;;;;;;;;;;5030173;28;20033;-61
2021/05/18 08:11:01;;;;;;;2.53;1.45;;;;;;;;;;5039725;28;20065;-61
2021/05/18 08:13:27;;;;;;;4.38;2.53;;;;;;;;;;5033148;28;20044;-61
2021/05/18 10:36:03;;;;;;;1.30;0.90;;;;;;;;;;5032491;28;20030;-62
2021/05/18 10:38:32;;;;;;;1.42;1.00;;;;;;;;;;5049447;28;20051;-63
2021/05/18 10:41:25;;;;;;;0.47;0.47;;;;;;;;;;5030960;28;20029;-62
2021/05/18 10:43:57;;;;;;;1.25;0.70;;;;;;;;;;5036217;28;20534;-62
2021/05/18 10:46:32;;;;;;;0.73;0.70;;;;;;;;;;5040979;28;20087;-62
2021/05/18 10:49:05;;;;;;;1.90;0.90;;;;;;;;;;5034281;28;20418;-62
2021/05/18 10:51:44;;;;;;;0.60;0.60;;;;;;;;;;5032443;28;20508;-63
2021/05/18 10:54:33;;;;;;;0.80;0.80;;;;;;;;;;5031774;28;20029;-62
2021/05/18 10:57:01;;;;;;;1.00;0.80;;;;;;;;;;5032505;28;20088;-63
2021/05/18 10:59:48;;;;;;;0.60;0.60;;;;;;;;;;5048460;28;20037;-63
2021/05/18 11:02:31;;;;;;;0.80;0.75;;;;;;;;;;5032942;28;20531;-62
2021/05/18 11:05:03;;;;;;;0.65;0.55;;;;;;;;;;5030697;28;20056;-63
2021/05/18 11:07:36;;;;;;;0.57;0.57;;;;;;;;;;5031745;28;20033;-62
2021/05/18 11:10:15;;;;;;;0.60;0.60;;;;;;;;;;5033982;28;20041;-63
2021/05/18 11:12:48;;;;;;;0.70;0.70;;;;;;;;;;5032542;28;20037;-62
2021/05/18 11:15:34;;;;;;;1.00;0.90;;;;;;;;;;5031666;28;20651;-63
2021/05/18 11:17:59;;;;;;;1.05;0.90;;;;;;;;;;5031791;28;20046;-62
2021/05/18 11:23:21;;;;;;;0.70;0.70;;;;;;;;;;5030218;28;20030;-63
2021/05/18 11:25:48;;;;;;;0.88;0.75;;;;;;;;;;5031381;28;20081;-63
2021/05/18 11:28:28;;;;;;;1.20;1.00;;;;;;;;;;5045479;28;21186;-63
2021/05/18 11:31:02;;;;;;;1.00;0.68;;;;;;;;;;5029028;28;20045;-63
2021/05/18 11:33:41;;;;;;;0.70;0.70;;;;;;;;;;5032446;28;20042;-63
2021/05/18 11:36:10;;;;;;;0.73;0.73;;;;;;;;;;5040087;28;20449;-63
2021/05/18 11:38:40;;;;;;;0.65;0.60;;;;;;;;;;5030824;28;20101;-63
2021/05/18 11:41:06;;;;;;;1.13;1.00;;;;;;;;;;5032213;28;20180;-62
2021/05/18 11:43:40;;;;;;;1.08;0.90;;;;;;;;;;5033335;28;20084;-62
2021/05/18 11:46:10;;;;;;;1.33;0.90;;;;;;;;;;5039291;28;20072;-63
2021/05/18 11:48:40;;;;;;;1.30;0.90;;;;;;;;;;5064751;28;20061;-63
2021/05/18 11:51:08;;;;;;;1.80;1.65;;;;;;;;;;5032766;28;20037;-64
2021/05/18 11:53:44;;;;;;;2.65;1.88;;;;;;;;;;5029330;28;20035;-63
2021/05/18 11:56:39;;;;;;;2.53;2.03;;;;;;;;;;5032905;28;20090;-62
2021/05/18 11:59:09;;;;;;;3.03;2.00;;;;;;;;;;5025095;28;20101;-63
2021/05/18 12:01:36;;;;;;;2.47;2.00;;;;;;;;;;5030607;28;20041;-64
2021/05/18 12:04:10;;;;;;;4.70;2.30;;;;;;;;;;5028741;28;20494;-64
2021/05/18 12:06:39;;;;;;;1.38;1.13;;;;;;;;;;5031859;28;20414;-64
2021/05/18 12:09:05;;;;;;;0.85;0.85;;;;;;;;;;5030111;28;20049;-64
2021/05/18 12:11:30;;;;;;;0.80;0.70;;;;;;;;;;5011667;28;20093;-61
2021/05/18 12:13:56;;;;;;;0.85;0.70;;;;;;;;;;5032845;28;20065;-60
2021/05/18 12:16:23;;;;;;;0.60;0.43;;;;;;;;;;5033350;28;20033;-61
2021/05/18 12:18:57;;;;;;;1.50;0.50;;;;;;;;;;5033799;28;20333;-61
2021/05/18 12:21:32;;;;;;;0.88;0.50;;;;;;;;;;5030526;28;20041;-61
2021/05/18 12:24:19;;;;;;;0.30;0.30;;;;;;;;;;5061922;28;20042;-61
2021/05/18 12:27:00;;;;;;;0.40;0.30;;;;;;;;;;5030852;28;20037;-60
2021/05/18 12:29:26;;;;;;;1.33;0.40;;;;;;;;;;5027646;28;20029;-61
2021/05/18 12:31:51;;;;;;;0.77;0.50;;;;;;;;;;5030009;28;20690;-61
2021/05/18 12:34:27;;;;;;;0.98;0.60;;;;;;;;;;5061689;28;20356;-61
2021/05/18 12:36:53;;;;;;;1.15;0.50;;;;;;;;;;5030601;28;20041;-61
2021/05/18 12:39:18;;;;;;;1.60;1.30;;;;;;;;;;5044514;28;20042;-62
2021/05/18 12:41:57;;;;;;;2.20;1.98;;;;;;;;;;5029888;28;20034;-61
2021/05/18 12:44:26;;;;;;;2.42;1.77;;;;;;;;;;5031449;28;20049;-61
2021/05/18 12:46:53;;;;;;;0.50;0.50;;;;;;;;;;5030469;28;20037;-61
2021/05/18 12:49:39;;;;;;;0.30;0.30;;;;;;;;;;5062270;28;20182;-61
2021/05/18 12:52:11;;;;;;;0.63;0.60;;;;;;;;;;5028747;28;20120;-61
2021/05/18 12:54:49;;;;;;;0.40;0.40;;;;;;;;;;5030630;28;20506;-61
2021/05/18 12:57:16;;;;;;;0.70;0.50;;;;;;;;;;5032929;28;20116;-61
2021/05/18 13:00:12;;;;;;;1.25;0.80;;;;;;;;;;5030298;28;20042;-61
2021/05/18 13:02:45;;;;;;;0.73;0.73;;;;;;;;;;5030220;28;20042;-61
2021/05/18 13:05:11;;;;;;;1.05;0.80;;;;;;;;;;5048048;28;20050;-62
2021/05/18 13:07:37;;;;;;;0.70;0.60;;;;;;;;;;5030994;28;20521;-62
2021/05/18 13:10:09;;;;;;;0.73;0.60;;;;;;;;;;5012956;28;20048;-61
2021/05/18 13:12:35;;;;;;;;;;;;;;;;;;5037844;28;20065;-62
2021/05/18 13:15:25;;;;;;;0.75;0.50;;;;;;;;;;5033223;28;20038;-62
2021/05/18 13:17:54;;;;;;;0.40;0.40;;;;;;;;;;5032750;28;20161;-62
2021/05/18 13:20:20;;;;;;;0.43;0.43;;;;;;;;;;5031295;28;20066;-62
2021/05/18 13:22:50;;;;;;;0.55;0.50;;;;;;;;;;5034212;28;20073;-62
2021/05/18 13:28:02;;;;;;;0.30;0.30;;;;;;;;;;5027000;28;20033;-62
2021/05/18 13:30:27;;;;;;;1.08;0.55;;;;;;;;;;5033797;28;20041;-62
2021/05/18 13:32:53;;;;;;;0.38;0.38;;;;;;;;;;5033002;28;20417;-62
2021/05/18 13:35:19;;;;;;;0.40;0.40;;;;;;;;;;5066961;28;20639;-62
2021/05/18 13:37:44;;;;;;;0.60;0.60;;;;;;;;;;5065941;28;21144;-62
2021/05/18 13:40:13;;;;;;;0.52;0.50;;;;;;;;;;5065912;28;20048;-62
2021/05/18 13:42:39;;;;;;;0.50;0.50;;;;;;;;;;5032596;28;20033;-62
2021/05/18 13:45:06;;;;;;;0.60;0.60;;;;;;;;;;5032728;28;20046;-62
2021/05/18 13:47:31;;;;;;;0.50;0.50;;;;;;;;;;5029738;28;20030;-62
2021/05/18 13:49:57;;;;;;;0.60;0.60;;;;;;;;;;5032959;28;20726;-64
2021/05/18 13:52:22;;;;;;;0.80;0.73;;;;;;;;;;5033109;28;20405;-62
2021/05/18 13:54:49;;;;;;;0.88;0.68;;;;;;;;;;5034118;28;20030;-62
2021/05/18 13:57:15;;;;;;;0.90;0.70;;;;;;;;;;5034573;28;20034;-61
2021/05/18 13:59:40;;;;;;;1.00;0.80;;;;;;;;;;5035282;28;20029;-62
2021/05/18 14:02:06;;;;;;;1.33;0.75;;;;;;;;;;5032970;28;20336;-62
2021/05/18 14:04:31;;;;;;;1.40;1.10;;;;;;;;;;5064771;28;20041;-62
2021/05/18 14:10:08;;;;;;;1.42;1.00;;;;;;;;;;5032933;28;20041;-62
2021/05/18 14:12:34;;;;;;;1.80;1.40;;;;;;;;;;5031584;28;20500;-62
2021/05/18 14:14:59;;;;;;;1.25;1.00;;;;;;;;;;5050057;28;20049;-63
2021/05/18 14:17:25;;;;;;;0.95;0.88;;;;;;;;;;5033662;28;20044;-62
2021/05/18 14:19:50;;;;;;;1.02;0.93;;;;;;;;;;5037690;28;20033;-62
2021/05/18 14:22:16;;;;;;;1.00;0.80;;;;;;;;;;5034544;28;20804;-62
2021/05/18 14:25:26;;;;;;;1.42;1.05;;;;;;;;;;5032182;28;20626;-62
2021/05/18 14:27:27;;;;;;;1.42;1.00;;;;;;;;;;5031820;28;20056;-62
2021/05/18 14:29:53;;;;;;;0.88;0.80;;;;;;;;;;5033299;28;20040;-62
2021/05/18 14:32:19;;;;;;;1.30;1.10;;;;;;;;;;5014792;28;20044;-62
2021/05/18 14:34:44;;;;;;;0.90;0.90;;;;;;;;;;5033204;28;20043;-62
2021/05/18 14:37:11;;;;;;;1.50;1.00;;;;;;;;;;5063914;28;20120;-62
2021/05/18 14:39:51;;;;;;;0.90;0.80;;;;;;;;;;5033649;28;20042;-62
2021/05/18 14:45:01;;;;;;;1.05;0.90;;;;;;;;;;5032447;28;20061;-62
2021/05/18 14:47:32;;;;;;;1.00;0.90;;;;;;;;;;5035606;28;20447;-63
2021/05/18 14:55:25;;;;;;;0.98;0.88;;;;;;;;;;5034451;28;20029;-63
2021/05/18 14:57:51;;;;;;;1.00;0.90;;;;;;;;;;5064069;28;20045;-63
2021/05/18 15:00:17;;;;;;;2.25;1.05;;;;;;;;;;5032253;28;20811;-62
2021/05/18 15:02:43;;;;;;;1.20;0.90;;;;;;;;;;5031039;28;20038;-62
2021/05/18 15:05:11;;;;;;;1.65;1.30;;;;;;;;;;5066782;28;20045;-62
2021/05/18 15:07:37;;;;;;;1.10;1.00;;;;;;;;;;5030040;28;20025;-62
2021/05/18 15:10:03;;;;;;;1.42;1.20;;;;;;;;;;5033501;28;20406;-62
2021/05/18 15:12:29;;;;;;;1.52;1.20;;;;;;;;;;5032535;28;20042;-62
2021/05/18 15:14:54;;;;;;;1.70;1.30;;;;;;;;;;5032289;28;20036;-63
2021/05/18 15:17:20;;;;;;;1.58;1.23;;;;;;;;;;5029860;28;20045;-62
2021/05/18 15:19:47;;;;;;;1.77;1.20;;;;;;;;;;5030778;28;20030;-62
2021/05/18 15:22:13;;;;;;;1.30;1.20;;;;;;;;;;5031197;28;20029;-62
2021/05/18 15:24:38;;;;;;;2.15;1.48;;;;;;;;;;5032960;28;20089;-62
2021/05/18 15:27:05;;;;;;;1.42;1.20;;;;;;;;;;5032356;28;20030;-63
2021/05/18 15:29:31;;;;;;;1.63;1.40;;;;;;;;;;5033151;28;20049;-63
2021/05/18 15:31:57;;;;;;;1.85;1.50;;;;;;;;;;5031952;28;20132;-62
2021/05/18 15:34:22;;;;;;;1.98;1.25;;;;;;;;;;5030865;28;20079;-62
2021/05/18 15:36:48;;;;;;;1.20;1.10;;;;;;;;;;5031842;28;20038;-63
2021/05/18 15:39:13;;;;;;;1.40;1.20;;;;;;;;;;5029869;28;20025;-63
2021/05/18 15:41:39;;;;;;;1.50;1.23;;;;;;;;;;5030443;28;20769;-62
2021/05/18 15:44:04;;;;;;;1.60;1.50;;;;;;;;;;5030182;28;20045;-63
2021/05/18 15:46:31;;;;;;;1.73;1.35;;;;;;;;;;5062979;28;20037;-62
2021/05/18 15:48:56;;;;;;;1.55;1.38;;;;;;;;;;5030065;28;20038;-63
2021/05/18 15:51:22;;;;;;;1.40;1.30;;;;;;;;;;5032552;28;20044;-62
2021/05/18 15:53:47;;;;;;;1.50;1.27;;;;;;;;;;5031920;28;20032;-62
2021/05/18 15:56:13;;;;;;;1.40;1.10;;;;;;;;;;5031300;28;20060;-63
2021/05/18 15:58:38;;;;;;;1.20;1.10;;;;;;;;;;5063635;28;20402;-63
2021/05/18 16:01:04;;;;;;;1.48;1.17;;;;;;;;;;5030851;28;20042;-62
2021/05/18 16:03:29;;;;;;;1.48;1.38;;;;;;;;;;5033067;28;20042;-62
2021/05/18 16:05:58;;;;;;;2.25;1.20;;;;;;;;;;5030793;28;20038;-63
2021/05/18 16:11:00;;;;;;;1.30;1.17;;;;;;;;;;5030828;28;20460;-63
2021/05/18 16:13:26;;;;;;;1.63;1.20;;;;;;;;;;5029967;28;20526;-62
2021/05/18 16:15:51;;;;;;;1.30;1.20;;;;;;;;;;4999402;28;20034;-63
2021/05/18 16:18:17;;;;;;;1.20;1.10;;;;;;;;;;5063476;28;20438;-63
2021/05/18 16:20:42;;;;;;;1.58;1.30;;;;;;;;;;5023044;28;20430;-63
2021/05/18 16:23:09;;;;;;;1.33;1.23;;;;;;;;;;5029797;28;20375;-63
2021/05/18 16:25:34;;;;;;;1.20;1.08;;;;;;;;;;5029348;28;20050;-63
2021/05/18 16:27:59;;;;;;;1.52;1.35;;;;;;;;;;5031079;28;20037;-62
2021/05/18 16:30:25;;;;;;;1.02;0.93;;;;;;;;;;5029566;28;20042;-62
2021/05/18 16:32:50;;;;;;;1.17;1.02;;;;;;;;;;5031934;28;20455;-63
2021/05/18 16:35:16;;;;;;;0.90;0.80;;;;;;;;;;5030610;28;20041;-71
2021/05/18 16:37:43;;;;;;;1.45;1.00;;;;;;;;;;5031180;28;20049;-63
2021/05/18 16:40:08;;;;;;;0.82;0.70;;;;;;;;;;5031425;28;20057;-66
2021/05/18 16:42:35;;;;;;;1.23;0.93;;;;;;;;;;5046504;28;20066;-62
2021/05/18 16:45:02;;;;;;;0.75;0.75;;;;;;;;;;5029450;28;20955;-61
2021/05/18 16:47:28;;;;;;;1.25;0.70;;;;;;;;;;5046831;28;20498;-64
2021/05/18 16:49:53;;;;;;;1.38;0.60;;;;;;;;;;5038671;28;20034;-59
2021/05/18 16:52:19;;;;;;;0.73;0.70;;;;;;;;;;5035130;28;20416;-60
2021/05/18 16:54:44;;;;;;;0.88;0.70;;;;;;;;;;5034466;28;20029;-59
2021/05/18 16:57:10;;;;;;;0.63;0.50;;;;;;;;;;5032972;28;20017;-62
2021/05/18 16:59:36;;;;;;;1.15;0.70;;;;;;;;;;5033922;28;20037;-60
2021/05/18 17:02:01;;;;;;;0.80;0.80;;;;;;;;;;5034844;28;20042;-60
2021/05/18 17:04:27;;;;;;;0.50;0.50;;;;;;;;;;5035634;28;20034;-59
2021/05/18 17:06:54;;;;;;;1.23;0.63;;;;;;;;;;5035570;28;20042;-59
2021/05/18 17:09:19;;;;;;;1.00;0.70;;;;;;;;;;5033929;28;20037;-60
2021/05/18 17:11:45;;;;;;;0.70;0.68;;;;;;;;;;5033675;28;20041;-60
2021/05/18 17:14:11;;;;;;;0.95;0.75;;;;;;;;;;5034872;28;20037;-60
2021/05/18 17:16:36;;;;;;;1.10;0.80;;;;;;;;;;5017230;28;20037;-59
2021/05/18 17:19:02;;;;;;;0.73;0.60;;;;;;;;;;5033495;28;20084;-60
2021/05/18 17:21:29;;;;;;;1.00;0.70;;;;;;;;;;5033027;28;20108;-60
2021/05/18 17:23:55;;;;;;;1.73;0.80;;;;;;;;;;5033956;28;20045;-60
2021/05/18 17:26:20;;;;;;;0.98;0.88;;;;;;;;;;5032570;28;20478;-60
2021/05/18 17:28:45;;;;;;;1.50;0.98;;;;;;;;;;5033397;28;20889;-61
2021/05/18 17:31:12;;;;;;;1.00;0.80;;;;;;;;;;5067434;28;20033;-61
2021/05/18 17:33:38;;;;;;;1.33;0.85;;;;;;;;;;5033070;28;20041;-62
2021/05/18 17:36:03;;;;;;;1.30;0.80;;;;;;;;;;5031598;28;20545;-62
2021/05/18 17:38:29;;;;;;;0.70;0.70;;;;;;;;;;5032843;28;20678;-62
2021/05/18 17:40:54;;;;;;;1.25;0.80;;;;;;;;;;5049827;28;20064;-61
2021/05/18 17:43:20;;;;;;;1.25;0.98;;;;;;;;;;5028558;28;20231;-61
2021/05/18 17:45:45;;;;;;;1.30;1.00;;;;;;;;;;5032488;28;20042;-60
2021/05/18 17:48:11;;;;;;;1.45;0.95;;;;;;;;;;5033171;28;20049;-61
2021/05/18 17:50:37;;;;;;;1.77;1.10;;;;;;;;;;5049744;28;20097;-61
2021/05/18 17:53:02;;;;;;;1.20;0.95;;;;;;;;;;5032326;28;20063;-61
2021/05/18 17:55:28;;;;;;;1.45;0.80;;;;;;;;;;5016532;28;20084;-61
2021/05/18 17:57:53;;;;;;;1.38;0.95;;;;;;;;;;5016749;28;20601;-61
2021/05/18 18:00:19;;;;;;;1.02;0.90;;;;;;;;;;5032445;28;20041;-61
2021/05/18 18:02:45;;;;;;;1.20;0.90;;;;;;;;;;5016432;28;20057;-61
2021/05/18 18:05:11;;;;;;;1.25;0.95;;;;;;;;;;5033780;28;20050;-62
2021/05/18 18:07:37;;;;;;;1.02;0.90;;;;;;;;;;5031654;28;20100;-61
2021/05/18 18:10:04;;;;;;;1.88;1.10;;;;;;;;;;5050046;28;20049;-62
2021/05/18 18:12:30;;;;;;;1.13;1.00;;;;;;;;;;5030213;28;20612;-60
2021/05/18 18:14:55;;;;;;;1.50;0.98;;;;;;;;;;5032217;28;20154;-61
2021/05/18 18:17:24;;;;;;;1.55;1.02;;;;;;;;;;5031450;28;20505;-62
2021/05/18 18:19:51;;;;;;;1.20;1.02;;;;;;;;;;5032559;28;20069;-63
2021/05/18 18:22:17;;;;;;;1.55;1.08;;;;;;;;;;5049523;28;20038;-62
2021/05/18 18:24:42;;;;;;;2.13;1.15;;;;;;;;;;5030739;28;20054;-63
2021/05/18 18:27:09;;;;;;;1.35;1.00;;;;;;;;;;5030944;28;20037;-63
2021/05/18 18:29:35;;;;;;;2.25;1.30;;;;;;;;;;5032478;28;20056;-64
2021/05/18 18:32:00;;;;;;;1.38;1.13;;;;;;;;;;5029309;28;20583;-63
2021/05/18 18:34:28;;;;;;;1.90;1.00;;;;;;;;;;5030234;28;20061;-63
2021/05/18 18:36:54;;;;;;;1.63;1.20;;;;;;;;;;5030514;28;20030;-62
2021/05/18 18:39:19;;;;;;;1.90;1.20;;;;;;;;;;5030480;28;20026;-63
2021/05/18 18:41:45;;;;;;;1.40;1.10;;;;;;;;;;5040007;28;20041;-63
2021/05/18 18:44:10;;;;;;;2.13;1.38;;;;;;;;;;5065350;28;20057;-62
2021/05/18 18:46:37;;;;;;;2.03;1.15;;;;;;;;;;5033370;28;20502;-63
2021/05/18 18:49:04;;;;;;;2.08;1.30;;;;;;;;;;5033591;28;20398;-62
2021/05/18 18:51:33;;;;;;;1.25;1.08;;;;;;;;;;5032856;28;20160;-62
2021/05/18 18:53:59;;;;;;;1.50;1.08;;;;;;;;;;5034019;28;20087;-61
2021/05/18 18:56:24;;;;;;;1.92;1.10;;;;;;;;;;5030861;28;20095;-62
2021/05/18 18:58:50;;;;;;;1.40;1.00;;;;;;;;;;5030871;28;20033;-61
2021/05/18 19:01:15;;;;;;;1.15;1.05;;;;;;;;;;5031118;28;20030;-63
2021/05/18 19:03:47;;;;;;;1.45;1.20;;;;;;;;;;5033441;28;20030;-63
2021/05/18 19:14:01;;;;;;;2.05;1.10;;;;;;;;;;5057097;28;20042;-64
2021/05/18 19:16:26;;;;;;;1.65;1.20;;;;;;;;;;5032221;28;20092;-63
2021/05/18 19:18:52;;;;;;;2.13;1.33;;;;;;;;;;5064494;28;20033;-63
2021/05/18 19:21:18;;;;;;;1.50;1.40;;;;;;;;;;5031998;28;20424;-62
2021/05/18 19:23:43;;;;;;;1.48;1.20;;;;;;;;;;5033169;28;20033;-61
2021/05/18 19:26:11;;;;;;;1.45;0.90;;;;;;;;;;5062803;27;21136;-61
2021/05/18 19:28:37;;;;;;;1.35;0.90;;;;;;;;;;5031594;28;20386;-62
2021/05/18 19:31:03;;;;;;;1.35;1.02;;;;;;;;;;5030687;28;20026;-61
2021/05/18 19:33:28;;;;;;;1.27;1.13;;;;;;;;;;5030412;28;20037;-62
2021/05/18 19:49:57;;;;;;;2.65;1.55;;;;;;;;;;5031793;28;20042;-60
2021/05/18 19:52:22;;;;;;;1.90;1.60;;;;;;;;;;5031114;28;20057;-60
2021/05/18 19:54:49;;;;;;;1.58;1.20;;;;;;;;;;5030259;28;20061;-60
2021/05/18 19:57:29;;;;;;;1.75;1.02;;;;;;;;;;5062236;28;20026;-60
2021/05/18 20:08:23;;;;;;;1.92;1.25;;;;;;;;;;5031201;28;20040;-61
2021/05/18 20:21:16;;;;;;;1.67;1.33;;;;;;;;;;5036900;28;20538;-60
2021/05/18 20:23:42;;;;;;;1.67;1.40;;;;;;;;;;5029088;28;20084;-60
2021/05/18 20:26:07;;;;;;;2.05;1.40;;;;;;;;;;5030745;28;21251;-59
2021/05/18 20:28:34;;;;;;;2.92;1.73;;;;;;;;;;5028867;28;20372;-60
2021/05/18 20:31:00;;;;;;;2.00;1.63;;;;;;;;;;5030461;28;20037;-60
2021/05/18 20:38:56;;;;;;;2.08;1.80;;;;;;;;;;5061609;28;20034;-60
2021/05/18 20:41:13;;;;;;;2.72;1.63;;;;;;;;;;5055293;28;20037;-60
2021/05/18 20:43:38;;;;;;;1.58;1.40;;;;;;;;;;5027871;28;20113;-60